ePrivacy and GPDR Cookie Consent by Cookie Consent
EmailTwitter


Observations de surface / France / LFPO (07149)

Régions: Québec | Canada | États-Unis | Europe | France | UK | Ailleurs
Station
Affichage
Infos & localisation pour LFPO (07149) | Aide pour décoder les METARs

Observations prises le 2022-09-24 à 23H30 UTC à PARIS/ORLY, FR (LFPO)

Etat du ciel: couvert.

Température: 14.0 Celsius

Point de rosée: 11.0 Celsius

Humidité relative: 82%

Vents: Nord-nord-est à 17 km/h ou 9 noeuds.

Pression au niveau moyen de la mer: 101.50 kilopascals.

Visibilité horizontale: 6.21 milles terrestres ou 9.94 kilomètres.

Hauteur du plafond: 640 mètres ( 2100 pieds ).

Observation METAR:

LFPO 242330Z AUTO 02009KT 9999 BKN021 OVC092 14/11 Q1015 BECMG BKN012=